sensor_id;sensor_type;location;lat;lon;timestamp;P1;durP1;ratioP1;P2;durP2;ratioP2
8291;SDS011;4184;42.724;23.308;2022-09-09T00:00:57;4.83;;;4.43;;
8291;SDS011;4184;42.724;23.308;2022-09-09T00:03:31;4.40;;;4.00;;
8291;SDS011;4184;42.724;23.308;2022-09-09T00:06:09;4.93;;;4.43;;
8291;SDS011;4184;42.724;23.308;2022-09-09T00:08:46;4.93;;;4.20;;
8291;SDS011;4184;42.724;23.308;2022-09-09T00:11:23;4.80;;;4.37;;
8291;SDS011;4184;42.724;23.308;2022-09-09T00:13:54;4.87;;;4.47;;
8291;SDS011;4184;42.724;23.308;2022-09-09T00:16:28;4.70;;;4.23;;
8291;SDS011;4184;42.724;23.308;2022-09-09T00:19:02;4.57;;;4.20;;
8291;SDS011;4184;42.724;23.308;2022-09-09T00:21:36;4.23;;;3.83;;
8291;SDS011;4184;42.724;23.308;2022-09-09T00:24:08;5.17;;;4.50;;
8291;SDS011;4184;42.724;23.308;2022-09-09T00:26:54;4.93;;;4.53;;
8291;SDS011;4184;42.724;23.308;2022-09-09T00:29:28;6.27;;;4.80;;
8291;SDS011;4184;42.724;23.308;2022-09-09T00:32:07;6.13;;;4.60;;
8291;SDS011;4184;42.724;23.308;2022-09-09T00:34:39;4.33;;;3.93;;
8291;SDS011;4184;42.724;23.308;2022-09-09T00:37:14;5.33;;;4.83;;
8291;SDS011;4184;42.724;23.308;2022-09-09T00:39:43;5.33;;;4.50;;
8291;SDS011;4184;42.724;23.308;2022-09-09T00:42:14;6.07;;;4.53;;
8291;SDS011;4184;42.724;23.308;2022-09-09T00:44:49;4.57;;;4.17;;
8291;SDS011;4184;42.724;23.308;2022-09-09T00:50:15;5.17;;;4.23;;
8291;SDS011;4184;42.724;23.308;2022-09-09T00:56:01;4.87;;;4.37;;
8291;SDS011;4184;42.724;23.308;2022-09-09T00:58:35;4.77;;;4.27;;
8291;SDS011;4184;42.724;23.308;2022-09-09T01:01:03;4.60;;;4.20;;
8291;SDS011;4184;42.724;23.308;2022-09-09T01:03:36;5.07;;;4.57;;
8291;SDS011;4184;42.724;23.308;2022-09-09T01:06:15;4.80;;;4.40;;
8291;SDS011;4184;42.724;23.308;2022-09-09T01:09:02;4.97;;;4.57;;
8291;SDS011;4184;42.724;23.308;2022-09-09T01:11:43;4.73;;;4.33;;
8291;SDS011;4184;42.724;23.308;2022-09-09T01:14:30;5.40;;;4.90;;
8291;SDS011;4184;42.724;23.308;2022-09-09T01:17:06;7.27;;;5.00;;
8291;SDS011;4184;42.724;23.308;2022-09-09T01:19:44;5.23;;;4.73;;
8291;SDS011;4184;42.724;23.308;2022-09-09T01:22:22;4.47;;;4.13;;
8291;SDS011;4184;42.724;23.308;2022-09-09T01:28:20;5.73;;;4.47;;
8291;SDS011;4184;42.724;23.308;2022-09-09T01:30:51;5.03;;;4.53;;
8291;SDS011;4184;42.724;23.308;2022-09-09T01:33:19;4.87;;;4.47;;
8291;SDS011;4184;42.724;23.308;2022-09-09T01:35:48;5.20;;;4.70;;
8291;SDS011;4184;42.724;23.308;2022-09-09T01:38:20;5.20;;;4.37;;
8291;SDS011;4184;42.724;23.308;2022-09-09T01:40:49;5.00;;;4.60;;
8291;SDS011;4184;42.724;23.308;2022-09-09T01:43:19;5.13;;;4.63;;
8291;SDS011;4184;42.724;23.308;2022-09-09T01:45:48;5.60;;;4.73;;
8291;SDS011;4184;42.724;23.308;2022-09-09T01:48:19;5.07;;;4.57;;
8291;SDS011;4184;42.724;23.308;2022-09-09T01:50:49;6.37;;;4.70;;
8291;SDS011;4184;42.724;23.308;2022-09-09T01:53:17;5.97;;;5.20;;
8291;SDS011;4184;42.724;23.308;2022-09-09T01:55:48;5.57;;;4.80;;
8291;SDS011;4184;42.724;23.308;2022-09-09T01:58:29;4.97;;;4.57;;
8291;SDS011;4184;42.724;23.308;2022-09-09T02:01:06;5.43;;;4.73;;
8291;SDS011;4184;42.724;23.308;2022-09-09T02:03:41;6.50;;;5.47;;
8291;SDS011;4184;42.724;23.308;2022-09-09T02:06:19;5.40;;;4.93;;
8291;SDS011;4184;42.724;23.308;2022-09-09T02:08:55;5.30;;;4.90;;
8291;SDS011;4184;42.724;23.308;2022-09-09T02:11:25;6.00;;;5.40;;
8291;SDS011;4184;42.724;23.308;2022-09-09T02:13:56;4.83;;;4.43;;
8291;SDS011;4184;42.724;23.308;2022-09-09T02:16:28;5.43;;;4.93;;
8291;SDS011;4184;42.724;23.308;2022-09-09T02:19:04;5.30;;;4.80;;
8291;SDS011;4184;42.724;23.308;2022-09-09T02:21:38;5.30;;;4.80;;
8291;SDS011;4184;42.724;23.308;2022-09-09T02:24:08;5.40;;;4.83;;
8291;SDS011;4184;42.724;23.308;2022-09-09T02:26:39;5.40;;;4.90;;
8291;SDS011;4184;42.724;23.308;2022-09-09T02:29:11;5.20;;;4.80;;
8291;SDS011;4184;42.724;23.308;2022-09-09T02:31:41;5.33;;;4.93;;
8291;SDS011;4184;42.724;23.308;2022-09-09T02:34:11;5.73;;;5.17;;
8291;SDS011;4184;42.724;23.308;2022-09-09T02:36:41;6.10;;;5.33;;
8291;SDS011;4184;42.724;23.308;2022-09-09T02:39:12;6.30;;;5.33;;
8291;SDS011;4184;42.724;23.308;2022-09-09T02:41:40;5.77;;;5.27;;
8291;SDS011;4184;42.724;23.308;2022-09-09T02:44:11;5.87;;;5.37;;
8291;SDS011;4184;42.724;23.308;2022-09-09T02:46:53;5.90;;;5.30;;
8291;SDS011;4184;42.724;23.308;2022-09-09T02:49:35;5.70;;;5.10;;
8291;SDS011;4184;42.724;23.308;2022-09-09T02:52:14;5.23;;;4.73;;
8291;SDS011;4184;42.724;23.308;2022-09-09T02:54:44;5.60;;;5.10;;
8291;SDS011;4184;42.724;23.308;2022-09-09T02:57:15;5.20;;;4.80;;
8291;SDS011;4184;42.724;23.308;2022-09-09T02:59:57;5.70;;;4.87;;
8291;SDS011;4184;42.724;23.308;2022-09-09T03:02:25;5.40;;;4.90;;
8291;SDS011;4184;42.724;23.308;2022-09-09T03:04:53;6.13;;;5.40;;
8291;SDS011;4184;42.724;23.308;2022-09-09T03:07:20;5.50;;;5.00;;
8291;SDS011;4184;42.724;23.308;2022-09-09T03:09:48;5.33;;;4.83;;
8291;SDS011;4184;42.724;23.308;2022-09-09T03:12:16;5.60;;;5.10;;
8291;SDS011;4184;42.724;23.308;2022-09-09T03:14:43;5.17;;;4.67;;
8291;SDS011;4184;42.724;23.308;2022-09-09T03:17:13;5.83;;;5.27;;
8291;SDS011;4184;42.724;23.308;2022-09-09T03:19:40;5.10;;;4.70;;
8291;SDS011;4184;42.724;23.308;2022-09-09T03:22:09;5.37;;;4.87;;
8291;SDS011;4184;42.724;23.308;2022-09-09T03:24:38;6.03;;;5.40;;
8291;SDS011;4184;42.724;23.308;2022-09-09T03:27:06;5.63;;;5.13;;
8291;SDS011;4184;42.724;23.308;2022-09-09T03:29:33;5.67;;;5.13;;
8291;SDS011;4184;42.724;23.308;2022-09-09T03:32:01;5.70;;;5.20;;
8291;SDS011;4184;42.724;23.308;2022-09-09T03:34:31;5.50;;;5.10;;
8291;SDS011;4184;42.724;23.308;2022-09-09T03:37:02;6.03;;;5.07;;
8291;SDS011;4184;42.724;23.308;2022-09-09T03:39:30;5.60;;;5.10;;
8291;SDS011;4184;42.724;23.308;2022-09-09T03:41:57;6.17;;;5.30;;
8291;SDS011;4184;42.724;23.308;2022-09-09T03:44:29;5.27;;;4.83;;
8291;SDS011;4184;42.724;23.308;2022-09-09T03:46:56;6.07;;;5.43;;
8291;SDS011;4184;42.724;23.308;2022-09-09T03:49:25;5.80;;;5.30;;
8291;SDS011;4184;42.724;23.308;2022-09-09T03:51:55;5.90;;;5.40;;
8291;SDS011;4184;42.724;23.308;2022-09-09T03:54:26;5.83;;;5.10;;
8291;SDS011;4184;42.724;23.308;2022-09-09T03:56:54;6.37;;;5.70;;
8291;SDS011;4184;42.724;23.308;2022-09-09T03:59:21;5.60;;;5.10;;
8291;SDS011;4184;42.724;23.308;2022-09-09T04:01:49;6.10;;;5.60;;
8291;SDS011;4184;42.724;23.308;2022-09-09T04:04:17;6.40;;;5.90;;
8291;SDS011;4184;42.724;23.308;2022-09-09T04:06:45;6.73;;;6.07;;
8291;SDS011;4184;42.724;23.308;2022-09-09T04:09:15;6.10;;;5.50;;
8291;SDS011;4184;42.724;23.308;2022-09-09T04:11:42;7.03;;;6.30;;
8291;SDS011;4184;42.724;23.308;2022-09-09T04:14:11;6.90;;;6.20;;
8291;SDS011;4184;42.724;23.308;2022-09-09T04:16:41;6.10;;;5.50;;
8291;SDS011;4184;42.724;23.308;2022-09-09T04:19:09;6.00;;;5.50;;
8291;SDS011;4184;42.724;23.308;2022-09-09T04:21:38;6.60;;;5.90;;
8291;SDS011;4184;42.724;23.308;2022-09-09T04:24:07;7.00;;;6.30;;
8291;SDS011;4184;42.724;23.308;2022-09-09T04:26:36;6.87;;;6.13;;
8291;SDS011;4184;42.724;23.308;2022-09-09T04:29:05;6.90;;;6.17;;
8291;SDS011;4184;42.724;23.308;2022-09-09T04:31:33;6.93;;;6.20;;
8291;SDS011;4184;42.724;23.308;2022-09-09T04:34:01;7.80;;;7.10;;
8291;SDS011;4184;42.724;23.308;2022-09-09T04:36:31;7.57;;;6.30;;
8291;SDS011;4184;42.724;23.308;2022-09-09T04:38:59;7.90;;;6.50;;
8291;SDS011;4184;42.724;23.308;2022-09-09T04:41:27;7.03;;;6.33;;
8291;SDS011;4184;42.724;23.308;2022-09-09T04:43:57;8.10;;;6.03;;
8291;SDS011;4184;42.724;23.308;2022-09-09T04:46:27;7.07;;;6.10;;
8291;SDS011;4184;42.724;23.308;2022-09-09T04:48:56;6.53;;;5.93;;
8291;SDS011;4184;42.724;23.308;2022-09-09T04:51:24;7.40;;;6.40;;
8291;SDS011;4184;42.724;23.308;2022-09-09T04:53:51;7.80;;;5.87;;
8291;SDS011;4184;42.724;23.308;2022-09-09T04:56:19;7.63;;;6.07;;
8291;SDS011;4184;42.724;23.308;2022-09-09T04:58:47;7.70;;;6.00;;
8291;SDS011;4184;42.724;23.308;2022-09-09T05:01:16;6.63;;;5.70;;
8291;SDS011;4184;42.724;23.308;2022-09-09T05:03:46;6.93;;;6.23;;
8291;SDS011;4184;42.724;23.308;2022-09-09T05:06:14;6.40;;;5.80;;
8291;SDS011;4184;42.724;23.308;2022-09-09T05:08:44;6.67;;;5.90;;
8291;SDS011;4184;42.724;23.308;2022-09-09T05:11:18;5.90;;;5.30;;
8291;SDS011;4184;42.724;23.308;2022-09-09T05:13:48;7.90;;;5.20;;
8291;SDS011;4184;42.724;23.308;2022-09-09T05:16:19;6.33;;;5.73;;
8291;SDS011;4184;42.724;23.308;2022-09-09T05:18:47;6.70;;;5.07;;
8291;SDS011;4184;42.724;23.308;2022-09-09T05:21:16;5.67;;;4.90;;
8291;SDS011;4184;42.724;23.308;2022-09-09T05:23:46;6.17;;;5.33;;
8291;SDS011;4184;42.724;23.308;2022-09-09T05:26:16;5.30;;;4.80;;
8291;SDS011;4184;42.724;23.308;2022-09-09T05:28:46;5.20;;;4.77;;
8291;SDS011;4184;42.724;23.308;2022-09-09T05:31:14;5.00;;;4.60;;
8291;SDS011;4184;42.724;23.308;2022-09-09T05:33:45;5.37;;;4.87;;
8291;SDS011;4184;42.724;23.308;2022-09-09T05:36:14;5.67;;;5.03;;
8291;SDS011;4184;42.724;23.308;2022-09-09T05:38:43;5.63;;;5.13;;
8291;SDS011;4184;42.724;23.308;2022-09-09T05:41:13;4.87;;;4.37;;
8291;SDS011;4184;42.724;23.308;2022-09-09T05:43:42;4.93;;;4.53;;
8291;SDS011;4184;42.724;23.308;2022-09-09T05:46:13;5.97;;;5.07;;
8291;SDS011;4184;42.724;23.308;2022-09-09T05:48:46;5.03;;;4.63;;
8291;SDS011;4184;42.724;23.308;2022-09-09T05:51:16;6.70;;;4.53;;
8291;SDS011;4184;42.724;23.308;2022-09-09T05:53:46;6.13;;;4.50;;
8291;SDS011;4184;42.724;23.308;2022-09-09T05:56:18;6.63;;;5.07;;
8291;SDS011;4184;42.724;23.308;2022-09-09T05:58:48;9.13;;;5.70;;
8291;SDS011;4184;42.724;23.308;2022-09-09T06:01:18;9.23;;;5.77;;
8291;SDS011;4184;42.724;23.308;2022-09-09T06:03:49;6.80;;;5.53;;
8291;SDS011;4184;42.724;23.308;2022-09-09T06:06:18;8.07;;;5.70;;
8291;SDS011;4184;42.724;23.308;2022-09-09T06:08:50;6.63;;;5.33;;
8291;SDS011;4184;42.724;23.308;2022-09-09T06:11:19;5.97;;;5.47;;
8291;SDS011;4184;42.724;23.308;2022-09-09T06:13:47;6.33;;;5.67;;
8291;SDS011;4184;42.724;23.308;2022-09-09T06:16:16;9.70;;;5.43;;
8291;SDS011;4184;42.724;23.308;2022-09-09T06:18:45;6.30;;;5.70;;
8291;SDS011;4184;42.724;23.308;2022-09-09T06:21:16;6.00;;;5.37;;
8291;SDS011;4184;42.724;23.308;2022-09-09T06:23:45;5.63;;;5.13;;
8291;SDS011;4184;42.724;23.308;2022-09-09T06:26:14;5.53;;;5.03;;
8291;SDS011;4184;42.724;23.308;2022-09-09T06:28:43;5.07;;;4.67;;
8291;SDS011;4184;42.724;23.308;2022-09-09T06:31:13;5.43;;;4.67;;
8291;SDS011;4184;42.724;23.308;2022-09-09T06:33:47;5.50;;;4.83;;
8291;SDS011;4184;42.724;23.308;2022-09-09T06:36:17;4.60;;;4.17;;
8291;SDS011;4184;42.724;23.308;2022-09-09T06:38:46;5.77;;;4.80;;
8291;SDS011;4184;42.724;23.308;2022-09-09T06:41:14;8.63;;;5.60;;
8291;SDS011;4184;42.724;23.308;2022-09-09T06:43:43;5.07;;;4.33;;
8291;SDS011;4184;42.724;23.308;2022-09-09T06:46:12;5.53;;;4.57;;
8291;SDS011;4184;42.724;23.308;2022-09-09T06:48:41;6.57;;;4.97;;
8291;SDS011;4184;42.724;23.308;2022-09-09T06:51:10;6.83;;;4.67;;
8291;SDS011;4184;42.724;23.308;2022-09-09T06:53:41;7.37;;;4.70;;
8291;SDS011;4184;42.724;23.308;2022-09-09T06:56:17;5.33;;;4.33;;
8291;SDS011;4184;42.724;23.308;2022-09-09T06:58:48;6.73;;;5.07;;
8291;SDS011;4184;42.724;23.308;2022-09-09T07:01:18;5.07;;;4.37;;
8291;SDS011;4184;42.724;23.308;2022-09-09T07:03:47;4.60;;;4.20;;
8291;SDS011;4184;42.724;23.308;2022-09-09T07:06:16;6.13;;;4.80;;
8291;SDS011;4184;42.724;23.308;2022-09-09T07:08:49;6.73;;;4.23;;
8291;SDS011;4184;42.724;23.308;2022-09-09T07:11:18;4.53;;;4.13;;
8291;SDS011;4184;42.724;23.308;2022-09-09T07:13:46;4.13;;;3.73;;
8291;SDS011;4184;42.724;23.308;2022-09-09T07:16:14;4.13;;;3.73;;
8291;SDS011;4184;42.724;23.308;2022-09-09T07:18:43;4.10;;;3.70;;
8291;SDS011;4184;42.724;23.308;2022-09-09T07:21:11;4.60;;;3.90;;
8291;SDS011;4184;42.724;23.308;2022-09-09T07:23:39;4.40;;;4.03;;
8291;SDS011;4184;42.724;23.308;2022-09-09T07:26:09;4.00;;;3.60;;
8291;SDS011;4184;42.724;23.308;2022-09-09T07:28:38;4.67;;;3.43;;
8291;SDS011;4184;42.724;23.308;2022-09-09T07:31:07;4.00;;;3.70;;
8291;SDS011;4184;42.724;23.308;2022-09-09T07:33:40;3.17;;;2.87;;
8291;SDS011;4184;42.724;23.308;2022-09-09T07:36:09;4.33;;;3.90;;
8291;SDS011;4184;42.724;23.308;2022-09-09T07:38:39;4.13;;;3.60;;
8291;SDS011;4184;42.724;23.308;2022-09-09T07:41:10;3.80;;;3.50;;
8291;SDS011;4184;42.724;23.308;2022-09-09T07:43:39;3.70;;;3.40;;
8291;SDS011;4184;42.724;23.308;2022-09-09T07:46:07;3.33;;;3.03;;
8291;SDS011;4184;42.724;23.308;2022-09-09T07:48:37;3.37;;;3.07;;
8291;SDS011;4184;42.724;23.308;2022-09-09T07:51:05;3.17;;;2.87;;
8291;SDS011;4184;42.724;23.308;2022-09-09T07:53:35;2.90;;;2.70;;
8291;SDS011;4184;42.724;23.308;2022-09-09T07:56:04;3.13;;;2.93;;
8291;SDS011;4184;42.724;23.308;2022-09-09T07:58:35;4.40;;;3.30;;
8291;SDS011;4184;42.724;23.308;2022-09-09T08:01:07;4.63;;;3.27;;
8291;SDS011;4184;42.724;23.308;2022-09-09T08:03:36;3.00;;;2.80;;
8291;SDS011;4184;42.724;23.308;2022-09-09T08:06:05;3.20;;;2.80;;
8291;SDS011;4184;42.724;23.308;2022-09-09T08:08:34;2.80;;;2.60;;
8291;SDS011;4184;42.724;23.308;2022-09-09T08:11:04;2.90;;;2.70;;
8291;SDS011;4184;42.724;23.308;2022-09-09T08:13:36;3.00;;;2.70;;
8291;SDS011;4184;42.724;23.308;2022-09-09T08:16:08;2.83;;;2.63;;
8291;SDS011;4184;42.724;23.308;2022-09-09T08:18:37;3.30;;;3.00;;
8291;SDS011;4184;42.724;23.308;2022-09-09T08:21:06;2.70;;;2.50;;
8291;SDS011;4184;42.724;23.308;2022-09-09T08:23:37;3.40;;;3.10;;
8291;SDS011;4184;42.724;23.308;2022-09-09T08:26:06;3.70;;;3.20;;
8291;SDS011;4184;42.724;23.308;2022-09-09T08:28:38;3.40;;;3.10;;
8291;SDS011;4184;42.724;23.308;2022-09-09T08:31:07;2.90;;;2.70;;
8291;SDS011;4184;42.724;23.308;2022-09-09T08:33:35;3.00;;;2.70;;
8291;SDS011;4184;42.724;23.308;2022-09-09T08:36:05;3.27;;;3.00;;
8291;SDS011;4184;42.724;23.308;2022-09-09T08:38:35;2.93;;;2.70;;
8291;SDS011;4184;42.724;23.308;2022-09-09T08:41:14;3.90;;;3.07;;
8291;SDS011;4184;42.724;23.308;2022-09-09T08:44:00;2.70;;;2.50;;
8291;SDS011;4184;42.724;23.308;2022-09-09T08:46:34;3.10;;;2.80;;
8291;SDS011;4184;42.724;23.308;2022-09-09T08:49:15;3.00;;;2.80;;
8291;SDS011;4184;42.724;23.308;2022-09-09T08:51:54;3.27;;;2.97;;
8291;SDS011;4184;42.724;23.308;2022-09-09T08:54:23;3.87;;;2.80;;
8291;SDS011;4184;42.724;23.308;2022-09-09T08:56:53;2.97;;;2.73;;
8291;SDS011;4184;42.724;23.308;2022-09-09T08:59:23;3.57;;;2.83;;
8291;SDS011;4184;42.724;23.308;2022-09-09T09:01:53;3.03;;;2.73;;
8291;SDS011;4184;42.724;23.308;2022-09-09T09:07:24;3.37;;;3.07;;
8291;SDS011;4184;42.724;23.308;2022-09-09T09:10:10;3.87;;;3.37;;
8291;SDS011;4184;42.724;23.308;2022-09-09T09:12:47;3.50;;;3.20;;
8291;SDS011;4184;42.724;23.308;2022-09-09T09:15:18;3.73;;;2.93;;
8291;SDS011;4184;42.724;23.308;2022-09-09T09:17:49;3.47;;;2.77;;
8291;SDS011;4184;42.724;23.308;2022-09-09T09:20:18;4.10;;;2.67;;
8291;SDS011;4184;42.724;23.308;2022-09-09T09:22:52;3.23;;;2.97;;
8291;SDS011;4184;42.724;23.308;2022-09-09T09:25:25;2.97;;;2.77;;
8291;SDS011;4184;42.724;23.308;2022-09-09T09:27:58;3.07;;;2.87;;
8291;SDS011;4184;42.724;23.308;2022-09-09T09:30:34;2.80;;;2.60;;
8291;SDS011;4184;42.724;23.308;2022-09-09T09:33:08;4.03;;;2.97;;
8291;SDS011;4184;42.724;23.308;2022-09-09T09:35:43;4.17;;;2.93;;
8291;SDS011;4184;42.724;23.308;2022-09-09T09:38:13;3.40;;;3.00;;
8291;SDS011;4184;42.724;23.308;2022-09-09T09:40:48;3.40;;;3.10;;
8291;SDS011;4184;42.724;23.308;2022-09-09T09:43:21;5.27;;;3.63;;
8291;SDS011;4184;42.724;23.308;2022-09-09T09:45:54;4.70;;;3.60;;
8291;SDS011;4184;42.724;23.308;2022-09-09T09:48:22;5.03;;;3.90;;
8291;SDS011;4184;42.724;23.308;2022-09-09T09:50:51;3.83;;;3.43;;
8291;SDS011;4184;42.724;23.308;2022-09-09T09:53:23;5.47;;;3.93;;
8291;SDS011;4184;42.724;23.308;2022-09-09T09:55:53;4.60;;;4.10;;
8291;SDS011;4184;42.724;23.308;2022-09-09T09:58:23;4.77;;;4.07;;
8291;SDS011;4184;42.724;23.308;2022-09-09T10:00:54;4.00;;;3.60;;
8291;SDS011;4184;42.724;23.308;2022-09-09T10:03:23;4.10;;;3.57;;
8291;SDS011;4184;42.724;23.308;2022-09-09T10:05:52;3.67;;;3.30;;
8291;SDS011;4184;42.724;23.308;2022-09-09T10:08:21;3.60;;;3.30;;
8291;SDS011;4184;42.724;23.308;2022-09-09T10:10:52;3.77;;;3.20;;
8291;SDS011;4184;42.724;23.308;2022-09-09T10:13:29;3.83;;;3.47;;
8291;SDS011;4184;42.724;23.308;2022-09-09T10:16:06;4.33;;;3.23;;
8291;SDS011;4184;42.724;23.308;2022-09-09T10:18:50;3.37;;;3.07;;
8291;SDS011;4184;42.724;23.308;2022-09-09T10:21:30;3.60;;;3.30;;
8291;SDS011;4184;42.724;23.308;2022-09-09T10:24:30;3.47;;;3.17;;
8291;SDS011;4184;42.724;23.308;2022-09-09T10:27:15;4.20;;;3.80;;
8291;SDS011;4184;42.724;23.308;2022-09-09T10:30:02;4.00;;;3.50;;
8291;SDS011;4184;42.724;23.308;2022-09-09T10:32:41;4.20;;;3.80;;
8291;SDS011;4184;42.724;23.308;2022-09-09T10:35:27;3.60;;;3.30;;
8291;SDS011;4184;42.724;23.308;2022-09-09T10:38:12;3.80;;;3.50;;
8291;SDS011;4184;42.724;23.308;2022-09-09T10:40:47;3.87;;;3.57;;
8291;SDS011;4184;42.724;23.308;2022-09-09T10:43:31;3.13;;;2.87;;
8291;SDS011;4184;42.724;23.308;2022-09-09T10:46:09;3.80;;;3.50;;
8291;SDS011;4184;42.724;23.308;2022-09-09T10:48:53;3.63;;;3.33;;
8291;SDS011;4184;42.724;23.308;2022-09-09T10:51:33;3.83;;;3.43;;
8291;SDS011;4184;42.724;23.308;2022-09-09T10:54:11;3.53;;;3.23;;
8291;SDS011;4184;42.724;23.308;2022-09-09T10:56:49;3.83;;;3.47;;
8291;SDS011;4184;42.724;23.308;2022-09-09T10:59:23;3.90;;;3.60;;
8291;SDS011;4184;42.724;23.308;2022-09-09T11:01:55;4.23;;;3.73;;
8291;SDS011;4184;42.724;23.308;2022-09-09T11:04:28;4.00;;;3.70;;
8291;SDS011;4184;42.724;23.308;2022-09-09T11:07:00;4.00;;;3.60;;
8291;SDS011;4184;42.724;23.308;2022-09-09T11:09:35;4.10;;;3.70;;
8291;SDS011;4184;42.724;23.308;2022-09-09T11:12:09;4.63;;;3.63;;
8291;SDS011;4184;42.724;23.308;2022-09-09T11:14:44;4.03;;;3.63;;
8291;SDS011;4184;42.724;23.308;2022-09-09T11:17:18;4.23;;;3.83;;
8291;SDS011;4184;42.724;23.308;2022-09-09T11:19:49;4.00;;;3.60;;
8291;SDS011;4184;42.724;23.308;2022-09-09T11:22:21;4.97;;;3.90;;
8291;SDS011;4184;42.724;23.308;2022-09-09T11:24:56;5.67;;;3.80;;
8291;SDS011;4184;42.724;23.308;2022-09-09T11:27:28;4.10;;;3.80;;
8291;SDS011;4184;42.724;23.308;2022-09-09T11:30:04;5.67;;;3.60;;
8291;SDS011;4184;42.724;23.308;2022-09-09T11:35:47;3.93;;;3.50;;
8291;SDS011;4184;42.724;23.308;2022-09-09T11:38:27;3.97;;;3.57;;
8291;SDS011;4184;42.724;23.308;2022-09-09T11:41:00;4.70;;;3.57;;
8291;SDS011;4184;42.724;23.308;2022-09-09T11:43:32;3.80;;;3.40;;
8291;SDS011;4184;42.724;23.308;2022-09-09T11:46:05;3.57;;;3.30;;
8291;SDS011;4184;42.724;23.308;2022-09-09T11:48:35;3.63;;;3.27;;
8291;SDS011;4184;42.724;23.308;2022-09-09T11:51:06;3.87;;;3.57;;
8291;SDS011;4184;42.724;23.308;2022-09-09T11:53:36;3.73;;;3.43;;
8291;SDS011;4184;42.724;23.308;2022-09-09T11:56:23;3.83;;;3.47;;
8291;SDS011;4184;42.724;23.308;2022-09-09T11:58:56;3.80;;;3.37;;
8291;SDS011;4184;42.724;23.308;2022-09-09T12:01:29;4.57;;;4.17;;
8291;SDS011;4184;42.724;23.308;2022-09-09T12:04:13;4.80;;;4.30;;
8291;SDS011;4184;42.724;23.308;2022-09-09T12:06:58;5.10;;;4.60;;
8291;SDS011;4184;42.724;23.308;2022-09-09T12:09:29;4.83;;;4.40;;
8291;SDS011;4184;42.724;23.308;2022-09-09T12:12:06;5.47;;;4.83;;
8291;SDS011;4184;42.724;23.308;2022-09-09T12:14:54;5.23;;;4.20;;
8291;SDS011;4184;42.724;23.308;2022-09-09T12:17:25;5.40;;;4.80;;
8291;SDS011;4184;42.724;23.308;2022-09-09T12:20:10;5.10;;;4.60;;
8291;SDS011;4184;42.724;23.308;2022-09-09T12:22:47;6.03;;;5.07;;
8291;SDS011;4184;42.724;23.308;2022-09-09T12:25:27;5.63;;;4.90;;
8291;SDS011;4184;42.724;23.308;2022-09-09T12:28:04;4.87;;;4.37;;
8291;SDS011;4184;42.724;23.308;2022-09-09T12:30:40;5.07;;;4.40;;
8291;SDS011;4184;42.724;23.308;2022-09-09T12:33:13;4.30;;;3.97;;
8291;SDS011;4184;42.724;23.308;2022-09-09T12:35:45;4.70;;;4.13;;
8291;SDS011;4184;42.724;23.308;2022-09-09T12:38:20;4.10;;;3.80;;
8291;SDS011;4184;42.724;23.308;2022-09-09T12:40:54;4.40;;;4.00;;
8291;SDS011;4184;42.724;23.308;2022-09-09T12:43:24;6.20;;;4.80;;
8291;SDS011;4184;42.724;23.308;2022-09-09T12:45:53;5.10;;;4.60;;
8291;SDS011;4184;42.724;23.308;2022-09-09T12:48:27;4.60;;;4.20;;
8291;SDS011;4184;42.724;23.308;2022-09-09T12:50:58;5.07;;;4.57;;
8291;SDS011;4184;42.724;23.308;2022-09-09T12:53:29;5.03;;;4.53;;
8291;SDS011;4184;42.724;23.308;2022-09-09T12:56:00;4.50;;;4.10;;
8291;SDS011;4184;42.724;23.308;2022-09-09T12:58:33;4.60;;;4.20;;
8291;SDS011;4184;42.724;23.308;2022-09-09T13:01:03;4.77;;;4.23;;
8291;SDS011;4184;42.724;23.308;2022-09-09T13:03:33;5.13;;;4.23;;
8291;SDS011;4184;42.724;23.308;2022-09-09T13:06:11;4.47;;;4.07;;
8291;SDS011;4184;42.724;23.308;2022-09-09T13:08:41;5.10;;;3.70;;
8291;SDS011;4184;42.724;23.308;2022-09-09T13:11:09;6.17;;;4.70;;
8291;SDS011;4184;42.724;23.308;2022-09-09T13:13:41;4.40;;;4.00;;
8291;SDS011;4184;42.724;23.308;2022-09-09T13:16:18;5.37;;;4.03;;
8291;SDS011;4184;42.724;23.308;2022-09-09T13:18:49;5.33;;;4.23;;
8291;SDS011;4184;42.724;23.308;2022-09-09T13:21:17;4.13;;;3.57;;
8291;SDS011;4184;42.724;23.308;2022-09-09T13:23:49;4.27;;;3.87;;
8291;SDS011;4184;42.724;23.308;2022-09-09T13:26:22;4.33;;;4.03;;
8291;SDS011;4184;42.724;23.308;2022-09-09T13:28:51;3.83;;;3.53;;
8291;SDS011;4184;42.724;23.308;2022-09-09T13:31:21;4.20;;;3.80;;
8291;SDS011;4184;42.724;23.308;2022-09-09T13:33:52;4.40;;;4.07;;
8291;SDS011;4184;42.724;23.308;2022-09-09T13:36:27;5.07;;;4.33;;
8291;SDS011;4184;42.724;23.308;2022-09-09T13:38:58;4.93;;;3.70;;
8291;SDS011;4184;42.724;23.308;2022-09-09T13:41:28;3.97;;;3.57;;
8291;SDS011;4184;42.724;23.308;2022-09-09T13:43:58;4.43;;;4.03;;
8291;SDS011;4184;42.724;23.308;2022-09-09T13:46:32;6.40;;;3.70;;
8291;SDS011;4184;42.724;23.308;2022-09-09T13:49:02;5.63;;;3.97;;
8291;SDS011;4184;42.724;23.308;2022-09-09T13:51:45;4.93;;;3.90;;
8291;SDS011;4184;42.724;23.308;2022-09-09T13:54:17;5.37;;;3.87;;
8291;SDS011;4184;42.724;23.308;2022-09-09T13:56:48;4.57;;;3.83;;
8291;SDS011;4184;42.724;23.308;2022-09-09T13:59:16;4.00;;;3.70;;
8291;SDS011;4184;42.724;23.308;2022-09-09T14:01:46;4.53;;;3.50;;
8291;SDS011;4184;42.724;23.308;2022-09-09T14:04:17;4.07;;;3.30;;
8291;SDS011;4184;42.724;23.308;2022-09-09T14:06:46;3.93;;;3.63;;
8291;SDS011;4184;42.724;23.308;2022-09-09T14:09:17;3.87;;;3.47;;
8291;SDS011;4184;42.724;23.308;2022-09-09T14:11:45;3.40;;;3.10;;
8291;SDS011;4184;42.724;23.308;2022-09-09T14:14:12;3.33;;;3.03;;
8291;SDS011;4184;42.724;23.308;2022-09-09T14:16:40;3.67;;;3.37;;
8291;SDS011;4184;42.724;23.308;2022-09-09T14:19:07;3.87;;;3.53;;
8291;SDS011;4184;42.724;23.308;2022-09-09T14:21:35;3.87;;;3.37;;
8291;SDS011;4184;42.724;23.308;2022-09-09T14:24:03;3.90;;;3.27;;
8291;SDS011;4184;42.724;23.308;2022-09-09T14:26:32;4.00;;;3.60;;
8291;SDS011;4184;42.724;23.308;2022-09-09T14:28:59;3.73;;;3.43;;
8291;SDS011;4184;42.724;23.308;2022-09-09T14:31:27;4.17;;;3.77;;
8291;SDS011;4184;42.724;23.308;2022-09-09T14:33:54;3.47;;;3.17;;
8291;SDS011;4184;42.724;23.308;2022-09-09T14:36:22;4.87;;;3.47;;
8291;SDS011;4184;42.724;23.308;2022-09-09T14:38:49;4.73;;;3.00;;
8291;SDS011;4184;42.724;23.308;2022-09-09T14:41:18;4.00;;;3.60;;
8291;SDS011;4184;42.724;23.308;2022-09-09T14:43:49;4.57;;;4.10;;
8291;SDS011;4184;42.724;23.308;2022-09-09T14:46:17;4.63;;;4.20;;
8291;SDS011;4184;42.724;23.308;2022-09-09T14:48:45;5.37;;;4.77;;
8291;SDS011;4184;42.724;23.308;2022-09-09T14:51:15;6.60;;;4.03;;
8291;SDS011;4184;42.724;23.308;2022-09-09T14:53:44;4.77;;;3.97;;
8291;SDS011;4184;42.724;23.308;2022-09-09T14:56:13;5.30;;;3.80;;
8291;SDS011;4184;42.724;23.308;2022-09-09T14:58:42;4.47;;;4.07;;
8291;SDS011;4184;42.724;23.308;2022-09-09T15:01:12;5.17;;;4.10;;
8291;SDS011;4184;42.724;23.308;2022-09-09T15:03:41;4.67;;;4.20;;
8291;SDS011;4184;42.724;23.308;2022-09-09T15:06:15;4.43;;;4.03;;
8291;SDS011;4184;42.724;23.308;2022-09-09T15:08:43;4.50;;;4.03;;
8291;SDS011;4184;42.724;23.308;2022-09-09T15:11:12;4.70;;;4.13;;
8291;SDS011;4184;42.724;23.308;2022-09-09T15:13:41;5.37;;;4.00;;
8291;SDS011;4184;42.724;23.308;2022-09-09T15:16:10;5.00;;;4.00;;
8291;SDS011;4184;42.724;23.308;2022-09-09T15:18:40;4.20;;;3.87;;
8291;SDS011;4184;42.724;23.308;2022-09-09T15:21:10;4.10;;;3.70;;
8291;SDS011;4184;42.724;23.308;2022-09-09T15:23:38;3.73;;;3.43;;
8291;SDS011;4184;42.724;23.308;2022-09-09T15:26:06;4.97;;;3.80;;
8291;SDS011;4184;42.724;23.308;2022-09-09T15:28:35;4.30;;;3.90;;
8291;SDS011;4184;42.724;23.308;2022-09-09T15:31:04;4.80;;;3.30;;
8291;SDS011;4184;42.724;23.308;2022-09-09T15:33:36;4.30;;;3.90;;
8291;SDS011;4184;42.724;23.308;2022-09-09T15:36:14;3.60;;;3.30;;
8291;SDS011;4184;42.724;23.308;2022-09-09T15:38:42;3.57;;;3.27;;
8291;SDS011;4184;42.724;23.308;2022-09-09T15:41:10;3.90;;;3.60;;
8291;SDS011;4184;42.724;23.308;2022-09-09T15:43:38;3.90;;;3.60;;